»·PEaware :: JZA206 KSAN-KPSP

JZA206 :: KSAN-KPSP

FLIGHT INFORMATION

Flight Status: Arrived
Operator:
Air Canada Jazz
More flights by this operator :: More flights under this callsign
Pilot: Nick L. (7253)
Aircraft: CANADAIR CL-600 CRJ-200
(CRJ2)
More flights by this aircraft type
Origin: KSAN San Diego Intl-Lindbergh
United States
Destination: KPSP Palm Springs Intl
United States
More flights between these airports :: More routes between these airports
Route: +POGGI5 JLI V208 TRM
File this flight plan on PilotEdge
Remarks:
Altitude:
(Current/Filed)
11,000ft
Speed:
(Current/Filed)
400kts
Departed: 07-Oct-15 11:28 AM
Arrived: 07-Oct-15 12:02 PM
Distance/Time
Traveled:
74nm/0:34
Distance/Time
To Go:
Arrived

Flight Plot

Page will automatically refresh every two minutes.


Map Options




Map Legend


Flown Route
Filed Route
Departure Airport
Arrival Airport
Navaid (VOR, NDB)
Fix

Horizontal Profiles

Position Reports

Time Latitude Longitude Heading Altitude Ground
Speed
07-Oct-15 10:41 32.733088 -117.196711 138 22ft 0kts
07-Oct-15 10:42 32.733088 -117.196711 138 22ft 0kts
07-Oct-15 10:43 32.733088 -117.196711 138 22ft 0kts
07-Oct-15 10:44 32.733088 -117.196711 138 22ft 0kts
07-Oct-15 10:45 32.733088 -117.196711 138 22ft 0kts
07-Oct-15 10:46 32.733088 -117.196711 138 22ft 0kts
07-Oct-15 10:47 32.733088 -117.196711 138 22ft 0kts
07-Oct-15 10:48 32.733088 -117.196711 138 22ft 0kts
07-Oct-15 10:49 32.733088 -117.196711 138 22ft 0kts
07-Oct-15 10:50 32.733088 -117.196711 138 22ft 0kts
07-Oct-15 10:51 32.733088 -117.196711 138 22ft 0kts
07-Oct-15 10:52 32.733088 -117.196711 138 22ft 0kts
07-Oct-15 10:53 32.733088 -117.196711 138 22ft 0kts
07-Oct-15 10:54 32.733088 -117.196711 138 22ft 0kts
07-Oct-15 10:55 32.733088 -117.196711 138 22ft 0kts
07-Oct-15 10:56 32.733088 -117.196711 138 22ft 0kts
07-Oct-15 10:57 32.733088 -117.196711 138 22ft 0kts
07-Oct-15 10:58 32.733088 -117.196711 138 22ft 0kts
07-Oct-15 10:59 32.733088 -117.196711 138 22ft 0kts
07-Oct-15 11:00 32.733088 -117.196711 138 22ft 0kts
07-Oct-15 11:01 32.733088 -117.196711 138 22ft 0kts
07-Oct-15 11:02 32.733088 -117.196711 138 22ft 0kts
07-Oct-15 11:03 32.733088 -117.196711 138 22ft 0kts
07-Oct-15 11:04 32.733088 -117.196711 138 22ft 0kts
07-Oct-15 11:05 32.733088 -117.196711 138 22ft 0kts
07-Oct-15 11:06 32.733088 -117.196711 138 22ft 0kts
07-Oct-15 11:07 32.733088 -117.196711 138 22ft 0kts
07-Oct-15 11:08 32.733088 -117.196711 138 22ft 0kts
07-Oct-15 11:09 32.733088 -117.196711 138 22ft 0kts
07-Oct-15 11:10 32.733088 -117.196711 138 22ft 0kts
07-Oct-15 11:11 32.733088 -117.196711 138 22ft 0kts
07-Oct-15 11:12 32.733088 -117.196711 138 22ft 0kts
07-Oct-15 11:13 32.733088 -117.196711 138 22ft 0kts
07-Oct-15 11:14 32.733088 -117.196711 138 22ft 0kts
07-Oct-15 11:15 32.733088 -117.196711 138 22ft 0kts
07-Oct-15 11:16 32.733088 -117.196711 138 22ft 0kts
07-Oct-15 11:17 32.733152 -117.196926 10 22ft 0kts
07-Oct-15 11:18 32.733152 -117.196926 10 22ft 0kts
07-Oct-15 11:19 32.733684 -117.196791 12 22ft 6kts
07-Oct-15 11:20 32.733958 -117.195585 104 22ft 5kts
07-Oct-15 11:21 32.733625 -117.194322 113 22ft 2kts
07-Oct-15 11:22 32.731987 -117.187466 104 22ft 16kts
07-Oct-15 11:23 32.730785 -117.182500 105 22ft 25kts
07-Oct-15 11:24 32.729576 -117.177512 105 22ft 9kts
07-Oct-15 11:25 32.729467 -117.176857 74 22ft 0kts
07-Oct-15 11:26 32.729915 -117.175802 10 22ft 9kts
07-Oct-15 11:27 32.737454 -117.206214 285 963ft 175kts
07-Oct-15 11:28 32.752458 -117.266405 285 4254ft 208kts
07-Oct-15 11:29 32.727954 -117.315329 176 7617ft 220kts
07-Oct-15 11:30 32.672472 -117.280817 160 10264ft 241kts
07-Oct-15 11:31 32.642410 -117.205664 95 10915ft 333kts
07-Oct-15 11:32 32.626397 -117.084707 99 10975ft 388kts
07-Oct-15 11:33 32.612774 -116.960579 83 11046ft 373kts
07-Oct-15 11:34 32.624294 -116.840011 83 11003ft 381kts
07-Oct-15 11:35 32.689261 -116.752340 21 11012ft 383kts
07-Oct-15 11:36 32.791230 -116.712534 17 11003ft 385kts
07-Oct-15 11:37 32.889906 -116.676787 15 10998ft 363kts
07-Oct-15 11:38 32.984512 -116.642590 14 10998ft 349kts
07-Oct-15 11:39 33.076078 -116.609430 14 10997ft 340kts
07-Oct-15 11:40 33.161409 -116.567185 32 10962ft 338kts
07-Oct-15 11:41 33.236927 -116.502257 34 10965ft 334kts
07-Oct-15 11:42 33.311965 -116.437005 35 10928ft 336kts
07-Oct-15 11:43 33.387728 -116.370806 36 10982ft 339kts
07-Oct-15 11:44 33.464211 -116.303913 36 10990ft 342kts
07-Oct-15 11:45 33.539364 -116.238074 36 10988ft 334kts
07-Oct-15 11:46 33.610845 -116.175290 35 10989ft 330kts
07-Oct-15 11:47 33.695121 -116.186581 339 10990ft 327kts
07-Oct-15 11:48 33.781302 -116.223935 340 11005ft 330kts
07-Oct-15 11:49 33.868222 -116.260385 340 10958ft 333kts
07-Oct-15 11:50 33.948272 -116.293967 340 9168ft 288kts
07-Oct-15 11:51 34.019757 -116.324094 341 7582ft 252kts
07-Oct-15 11:52 34.079175 -116.353956 323 7588ft 222kts
07-Oct-15 11:53 34.107551 -116.417731 262 6730ft 232kts
07-Oct-15 11:54 34.097207 -116.492130 260 6061ft 210kts
07-Oct-15 11:55 34.066776 -116.549052 216 5347ft 224kts
07-Oct-15 11:56 34.011884 -116.580648 193 4334ft 212kts
07-Oct-15 11:57 33.955897 -116.588603 171 3518ft 200kts
07-Oct-15 11:58 33.903005 -116.569950 149 2947ft 198kts
07-Oct-15 11:59 33.863501 -116.537425 144 2026ft 154kts
07-Oct-15 12:00 33.829828 -116.507734 143 483ft 129kts
07-Oct-15 12:01 33.823193 -116.503403 266 482ft 0kts
07-Oct-15 12:02 33.823192 -116.503458 272 482ft 0kts
07-Oct-15 12:03 33.823478 -116.505962 239 482ft 0kts
07-Oct-15 12:04 33.823478 -116.505962 239 482ft 0kts
07-Oct-15 12:05 33.823478 -116.505962 239 482ft 0kts
07-Oct-15 12:06 33.823478 -116.505962 239 482ft 0kts
07-Oct-15 12:07 33.823478 -116.505962 239 482ft 0kts
07-Oct-15 12:08 33.823478 -116.505962 239 482ft 0kts
07-Oct-15 12:09 33.823478 -116.505962 239 482ft 0kts
07-Oct-15 12:10 33.823478 -116.505962 239 482ft 0kts
07-Oct-15 12:11 33.823478 -116.505962 239 482ft 0kts
07-Oct-15 12:12 33.823478 -116.505962 239 482ft 0kts
07-Oct-15 12:13 33.823478 -116.505962 239 482ft 0kts
07-Oct-15 12:14 33.823478 -116.505962 239 482ft 0kts
07-Oct-15 12:15 33.823478 -116.505962 239 482ft 0kts

Navigation Log

Ident Type
Flight plan parsing failed, navigation log unavailable